createdAt,value
2018-12-22T00:03:36.236Z,17.40
2018-12-22T00:06:10.400Z,17.30
2018-12-22T00:08:43.414Z,17.61
2018-12-22T00:11:16.568Z,17.55
2018-12-22T00:13:54.203Z,17.57
2018-12-22T00:16:25.848Z,17.71
2018-12-22T00:18:59.241Z,17.50
2018-12-22T00:21:34.195Z,17.06
2018-12-22T00:24:05.191Z,17.04
2018-12-22T00:26:40.148Z,16.84
2018-12-22T00:29:18.089Z,17.04
2018-12-22T00:31:59.127Z,17.12
2018-12-22T00:34:38.596Z,16.98
2018-12-22T00:37:15.281Z,17.09
2018-12-22T00:39:51.582Z,17.41
2018-12-22T00:42:27.750Z,17.26
2018-12-22T00:45:09.119Z,17.05
2018-12-22T00:47:46.542Z,16.76
2018-12-22T00:50:21.711Z,16.84
2018-12-22T00:52:53.907Z,17.14
2018-12-22T00:55:27.206Z,17.21
2018-12-22T00:57:59.999Z,17.00
2018-12-22T01:00:35.269Z,17.09
2018-12-22T01:03:07.357Z,17.26
2018-12-22T01:05:45.156Z,17.21
2018-12-22T01:08:18.424Z,17.40
2018-12-22T01:10:52.795Z,17.56
2018-12-22T01:13:26.221Z,17.84
2018-12-22T01:15:58.640Z,17.94
2018-12-22T01:18:39.309Z,17.88
2018-12-22T01:21:16.177Z,17.90
2018-12-22T01:23:49.949Z,17.80
2018-12-22T01:26:21.500Z,17.82
2018-12-22T01:28:53.405Z,17.64
2018-12-22T01:31:25.510Z,17.66
2018-12-22T01:33:57.898Z,17.66
2018-12-22T01:36:28.562Z,17.64
2018-12-22T01:39:00.445Z,17.61
2018-12-22T01:41:38.083Z,17.61
2018-12-22T01:44:14.531Z,17.60
2018-12-22T01:46:45.710Z,17.57
2018-12-22T01:49:19.656Z,17.62
2018-12-22T01:51:54.205Z,17.83
2018-12-22T01:54:40.961Z,17.67
2018-12-22T01:57:18.945Z,17.69
2018-12-22T01:59:57.585Z,17.65
2018-12-22T02:02:29.700Z,17.76
2018-12-22T02:05:05.087Z,17.59
2018-12-22T02:07:38.634Z,17.38
2018-12-22T02:10:12.959Z,17.68
2018-12-22T02:12:49.895Z,17.70
2018-12-22T02:15:30.810Z,17.56
2018-12-22T02:18:05.036Z,17.60
2018-12-22T02:20:38.544Z,17.54
2018-12-22T02:23:12.260Z,17.47
2018-12-22T02:25:48.867Z,17.51
2018-12-22T02:28:20.974Z,17.40
2018-12-22T02:30:59.882Z,17.43
2018-12-22T02:36:37.097Z,17.56
2018-12-22T02:39:14.640Z,17.51
2018-12-22T02:41:47.939Z,17.41
2018-12-22T02:44:23.626Z,17.48
2018-12-22T02:46:56.896Z,17.42
2018-12-22T02:49:29.550Z,17.35
2018-12-22T02:52:04.593Z,17.40
2018-12-22T02:57:29.187Z,17.25
2018-12-22T03:00:14.723Z,17.21
2018-12-22T03:03:02.803Z,17.35
2018-12-22T03:08:53.337Z,17.47
2018-12-22T03:14:34.457Z,17.77
2018-12-22T03:17:11.263Z,17.81
2018-12-22T03:19:45.282Z,17.74
2018-12-22T03:22:33.673Z,17.73
2018-12-22T03:32:09.171Z,17.66
2018-12-22T03:34:43.117Z,17.68
2018-12-22T03:37:14.513Z,17.59
2018-12-22T03:39:50.243Z,17.48
2018-12-22T03:42:22.644Z,17.64
2018-12-22T03:44:55.473Z,16.89
2018-12-22T03:47:30.331Z,17.54
2018-12-22T03:50:04.477Z,16.93
2018-12-22T03:52:40.377Z,16.79
2018-12-22T03:55:14.999Z,16.95
2018-12-22T03:57:53.962Z,16.93
2018-12-22T04:00:30.865Z,16.99
2018-12-22T04:03:05.370Z,17.05
2018-12-22T04:05:40.962Z,16.31
2018-12-22T04:08:15.119Z,16.89
2018-12-22T04:10:49.873Z,16.88
2018-12-22T04:13:24.003Z,16.70
2018-12-22T04:15:56.717Z,16.71
2018-12-22T04:18:32.179Z,16.72
2018-12-22T04:21:08.271Z,16.67
2018-12-22T04:23:42.461Z,16.77
2018-12-22T04:26:16.599Z,16.51
2018-12-22T04:28:49.197Z,16.78
2018-12-22T04:31:23.543Z,17.02
2018-12-22T04:33:55.973Z,17.17
2018-12-22T04:36:29.626Z,17.23
2018-12-22T04:39:10.270Z,17.03
2018-12-22T04:41:45.943Z,16.99
2018-12-22T04:44:22.554Z,17.11
2018-12-22T04:46:57.957Z,17.46
2018-12-22T04:49:29.687Z,17.73
2018-12-22T04:52:05.369Z,17.59
2018-12-22T04:54:37.731Z,17.64
2018-12-22T04:57:11.842Z,17.69
2018-12-22T04:59:48.865Z,17.65
2018-12-22T05:02:21.430Z,17.62
2018-12-22T05:04:53.630Z,17.53
2018-12-22T05:07:27.393Z,17.47
2018-12-22T05:10:00.769Z,17.50
2018-12-22T05:12:35.209Z,17.54
2018-12-22T05:15:16.294Z,17.49
2018-12-22T05:17:52.358Z,17.01
2018-12-22T05:20:27.080Z,16.58
2018-12-22T05:22:59.616Z,16.68
2018-12-22T05:25:36.026Z,16.72
2018-12-22T05:28:08.414Z,16.56
2018-12-22T05:30:41.618Z,16.75
2018-12-22T05:33:13.268Z,16.96
2018-12-22T05:35:46.089Z,17.13
2018-12-22T05:38:21.271Z,17.26
2018-12-22T05:40:54.768Z,17.16
2018-12-22T05:43:27.928Z,16.52
2018-12-22T05:46:03.555Z,17.27
2018-12-22T05:48:38.785Z,17.11
2018-12-22T05:51:12.267Z,17.42
2018-12-22T05:53:46.118Z,17.42
2018-12-22T05:56:22.060Z,16.99
2018-12-22T05:58:59.089Z,16.91
2018-12-22T06:01:35.257Z,16.92
2018-12-22T06:04:08.925Z,17.01
2018-12-22T06:06:42.928Z,17.05
2018-12-22T06:09:20.502Z,17.24
2018-12-22T06:11:58.509Z,17.18
2018-12-22T06:14:32.355Z,17.45
2018-12-22T06:17:08.604Z,17.47
2018-12-22T06:19:44.946Z,17.41
2018-12-22T06:22:19.255Z,17.39
2018-12-22T06:24:54.238Z,17.25
2018-12-22T06:27:30.632Z,17.27
2018-12-22T06:30:13.863Z,16.97
2018-12-22T06:32:47.117Z,16.74
2018-12-22T06:35:20.728Z,16.52
2018-12-22T06:37:53.923Z,16.64
2018-12-22T06:40:28.091Z,17.05
2018-12-22T06:43:03.358Z,17.08
2018-12-22T06:45:39.512Z,16.60
2018-12-22T06:48:15.162Z,16.71
2018-12-22T06:50:53.450Z,17.04
2018-12-22T06:53:30.817Z,17.01
2018-12-22T06:56:03.820Z,17.41
2018-12-22T06:58:38.888Z,17.19
2018-12-22T07:01:16.263Z,17.01
2018-12-22T07:03:54.129Z,17.18
2018-12-22T07:06:30.252Z,17.28
2018-12-22T07:09:05.981Z,16.98
2018-12-22T07:11:49.103Z,16.98
2018-12-22T07:14:24.445Z,16.58
2018-12-22T07:17:03.524Z,16.57
2018-12-22T07:19:37.722Z,16.70
2018-12-22T07:22:13.045Z,16.56
2018-12-22T07:24:45.417Z,16.52
2018-12-22T07:27:22.821Z,16.50
2018-12-22T07:29:57.599Z,16.57
2018-12-22T07:32:37.333Z,16.67
2018-12-22T07:35:10.167Z,16.64
2018-12-22T07:37:45.922Z,16.76
2018-12-22T07:40:22.958Z,16.65
2018-12-22T07:43:08.092Z,16.53
2018-12-22T07:45:46.728Z,16.62
2018-12-22T07:48:24.839Z,16.77
2018-12-22T07:50:59.610Z,16.63
2018-12-22T07:53:36.197Z,16.59
2018-12-22T07:56:08.667Z,16.43
2018-12-22T07:58:42.106Z,16.34
2018-12-22T08:01:16.599Z,16.19
2018-12-22T08:03:50.662Z,16.51
2018-12-22T08:06:31.091Z,16.42
2018-12-22T08:09:07.737Z,16.63
2018-12-22T08:11:40.735Z,16.44
2018-12-22T08:14:15.928Z,16.49
2018-12-22T08:16:51.905Z,16.41
2018-12-22T08:19:26.749Z,16.58
2018-12-22T08:22:00.905Z,16.59
2018-12-22T08:24:37.383Z,16.45
2018-12-22T08:27:12.021Z,16.28
2018-12-22T08:29:47.854Z,16.26
2018-12-22T08:32:23.485Z,16.28
2018-12-22T08:35:01.496Z,16.43
2018-12-22T08:37:39.750Z,16.50
2018-12-22T08:40:16.863Z,16.45
2018-12-22T08:42:57.213Z,16.31
2018-12-22T08:45:34.987Z,16.21
2018-12-22T08:48:12.731Z,16.33
2018-12-22T08:50:49.872Z,16.20
2018-12-22T08:53:27.849Z,16.43
2018-12-22T08:56:04.818Z,16.65
2018-12-22T08:58:42.244Z,16.48
2018-12-22T09:01:15.562Z,16.39
2018-12-22T09:03:48.179Z,16.59
2018-12-22T09:06:24.323Z,16.57
2018-12-22T09:08:57.099Z,16.52
2018-12-22T09:11:31.205Z,16.90
2018-12-22T09:14:05.772Z,17.44
2018-12-22T09:16:40.464Z,17.72
2018-12-22T09:19:15.028Z,17.87
2018-12-22T09:21:49.713Z,18.11
2018-12-22T09:24:26.643Z,18.08
2018-12-22T09:27:08.266Z,17.32
2018-12-22T09:29:46.403Z,17.42
2018-12-22T09:32:24.221Z,17.50
2018-12-22T09:34:59.075Z,17.06
2018-12-22T09:37:38.560Z,16.79
2018-12-22T09:40:14.696Z,16.57
2018-12-22T09:42:48.223Z,16.52
2018-12-22T09:45:28.398Z,16.43
2018-12-22T09:48:05.058Z,16.51
2018-12-22T09:50:45.373Z,16.38
2018-12-22T09:53:22.460Z,16.17
2018-12-22T09:56:02.531Z,16.11
2018-12-22T09:58:36.255Z,16.17
2018-12-22T10:01:12.291Z,16.14
2018-12-22T10:03:48.837Z,16.17
2018-12-22T10:06:25.042Z,16.30
2018-12-22T10:08:57.209Z,16.28
2018-12-22T10:11:37.144Z,16.25
2018-12-22T10:14:15.416Z,15.62
2018-12-22T10:16:48.634Z,15.29
2018-12-22T10:19:25.147Z,15.50
2018-12-22T10:22:00.899Z,15.53
2018-12-22T10:24:39.712Z,15.19
2018-12-22T10:27:17.817Z,14.82
2018-12-22T10:29:55.578Z,14.57
2018-12-22T10:32:29.867Z,14.45
2018-12-22T10:35:06.164Z,14.47
2018-12-22T10:37:44.095Z,14.57
2018-12-22T10:40:22.345Z,15.00
2018-12-22T10:42:59.010Z,15.18
2018-12-22T10:45:33.079Z,15.44
2018-12-22T10:48:08.274Z,15.49
2018-12-22T10:50:48.222Z,15.35
2018-12-22T10:53:23.840Z,15.54
2018-12-22T10:56:03.666Z,15.71
2018-12-22T10:58:38.301Z,15.99
2018-12-22T11:01:15.078Z,15.87
2018-12-22T11:03:49.813Z,15.01
2018-12-22T11:06:23.197Z,15.74
2018-12-22T11:08:55.538Z,15.90
2018-12-22T11:11:31.916Z,16.08
2018-12-22T11:14:09.129Z,16.22
2018-12-22T11:16:42.649Z,16.41
2018-12-22T11:19:19.796Z,16.81
2018-12-22T11:21:55.336Z,17.13
2018-12-22T11:24:33.281Z,17.32
2018-12-22T11:27:07.881Z,17.41
2018-12-22T11:29:41.141Z,17.47
2018-12-22T11:32:16.049Z,17.40
2018-12-22T11:34:47.150Z,17.36
2018-12-22T11:37:20.550Z,17.65
2018-12-22T11:40:10.635Z,17.66
2018-12-22T11:42:47.922Z,17.58
2018-12-22T11:45:23.961Z,17.94
2018-12-22T11:48:07.892Z,17.85
2018-12-22T11:50:42.752Z,17.64
2018-12-22T11:53:22.351Z,17.37
2018-12-22T11:55:57.570Z,17.36
2018-12-22T11:58:38.365Z,16.40
2018-12-22T12:01:13.141Z,17.78
2018-12-22T12:03:49.778Z,17.91
2018-12-22T12:06:30.175Z,18.10
2018-12-22T12:09:05.064Z,18.34
2018-12-22T12:11:40.470Z,18.57
2018-12-22T12:14:20.695Z,18.50
2018-12-22T12:17:10.988Z,18.87
2018-12-22T12:19:49.423Z,18.81
2018-12-22T12:22:25.497Z,18.13
2018-12-22T12:24:59.716Z,18.25
2018-12-22T12:27:34.468Z,18.05
2018-12-22T12:30:14.263Z,18.06
2018-12-22T12:32:48.014Z,18.37
2018-12-22T12:35:24.719Z,18.35
2018-12-22T12:38:02.635Z,18.31
2018-12-22T12:40:45.445Z,17.47
2018-12-22T12:43:21.540Z,18.25
2018-12-22T12:46:01.318Z,17.96
2018-12-22T12:48:38.323Z,18.35
2018-12-22T12:51:12.116Z,18.77
2018-12-22T12:53:50.478Z,18.66
2018-12-22T12:56:25.722Z,18.25
2018-12-22T12:59:03.233Z,18.50
2018-12-22T13:01:39.686Z,18.56
2018-12-22T13:04:14.822Z,18.60
2018-12-22T13:06:52.446Z,18.54
2018-12-22T13:09:25.664Z,18.61
2018-12-22T13:12:00.714Z,18.78
2018-12-22T13:14:41.912Z,19.07
2018-12-22T13:17:20.612Z,19.27
2018-12-22T13:19:58.635Z,19.05
2018-12-22T13:22:38.496Z,19.41
2018-12-22T13:25:11.020Z,19.43
2018-12-22T13:27:45.458Z,19.56
2018-12-22T13:30:28.354Z,19.77
2018-12-22T13:33:01.699Z,20.13
2018-12-22T13:35:35.922Z,19.87
2018-12-22T13:38:10.449Z,19.68
2018-12-22T13:40:46.814Z,19.20
2018-12-22T13:43:23.601Z,19.55
2018-12-22T13:46:01.790Z,19.36
2018-12-22T13:48:34.892Z,19.44
2018-12-22T13:51:11.226Z,19.64
2018-12-22T13:53:47.846Z,19.50
2018-12-22T13:56:22.239Z,19.15
2018-12-22T13:59:01.958Z,18.91
2018-12-22T14:01:39.982Z,18.79
2018-12-22T14:04:17.090Z,19.05
2018-12-22T14:06:54.417Z,19.19
2018-12-22T14:09:33.159Z,19.16
2018-12-22T14:12:11.253Z,18.27
2018-12-22T14:14:45.291Z,17.96
2018-12-22T14:17:27.718Z,17.80
2018-12-22T14:20:13.738Z,18.07
2018-12-22T14:22:53.554Z,18.05
2018-12-22T14:25:36.062Z,18.38
2018-12-22T14:28:14.486Z,18.10
2018-12-22T14:30:48.978Z,17.72
2018-12-22T14:33:26.385Z,17.80
2018-12-22T14:36:08.523Z,18.01
2018-12-22T14:38:45.755Z,18.16
2018-12-22T14:41:22.483Z,18.40
2018-12-22T14:44:01.481Z,18.28
2018-12-22T14:46:36.368Z,18.31
2018-12-22T14:49:12.428Z,18.56
2018-12-22T14:51:45.234Z,18.63
2018-12-22T14:54:21.725Z,18.70
2018-12-22T14:56:56.901Z,18.67
2018-12-22T15:02:12.563Z,18.67
2018-12-22T15:04:47.891Z,18.65
2018-12-22T15:07:23.328Z,18.85
2018-12-22T15:09:58.292Z,18.71
2018-12-22T15:12:35.587Z,18.46
2018-12-22T15:15:23.205Z,18.13
2018-12-22T15:17:57.708Z,18.20
2018-12-22T15:20:34.612Z,17.67
2018-12-22T15:23:12.065Z,18.10
2018-12-22T15:25:51.746Z,18.09
2018-12-22T15:28:28.146Z,18.03
2018-12-22T15:31:05.622Z,18.01
2018-12-22T15:33:42.024Z,17.92
2018-12-22T15:36:17.289Z,17.88
2018-12-22T15:38:55.455Z,17.90
2018-12-22T15:41:32.416Z,17.91
2018-12-22T15:44:07.706Z,18.02
2018-12-22T15:46:44.826Z,17.76
2018-12-22T15:49:23.418Z,17.70
2018-12-22T15:52:02.233Z,17.74
2018-12-22T15:54:37.913Z,17.50
2018-12-22T15:57:13.266Z,17.77
2018-12-22T15:59:48.639Z,17.80
2018-12-22T16:02:24.686Z,17.82
2018-12-22T16:05:01.718Z,17.72
2018-12-22T16:07:40.265Z,17.73
2018-12-22T16:10:17.641Z,17.63
2018-12-22T16:12:50.689Z,17.55
2018-12-22T16:15:26.457Z,17.29
2018-12-22T16:18:04.247Z,17.38
2018-12-22T16:20:41.341Z,17.18
2018-12-22T16:23:14.594Z,17.16
2018-12-22T16:25:49.750Z,17.27
2018-12-22T16:28:29.436Z,17.26
2018-12-22T16:31:10.679Z,17.27
2018-12-22T16:33:44.466Z,16.61
2018-12-22T16:36:21.041Z,17.39
2018-12-22T16:38:57.211Z,17.16
2018-12-22T16:41:37.762Z,17.02
2018-12-22T16:44:18.368Z,16.85
2018-12-22T16:46:55.684Z,16.83
2018-12-22T16:49:30.104Z,16.98
2018-12-22T16:52:06.596Z,16.95
2018-12-22T16:54:40.202Z,17.01
2018-12-22T16:57:18.416Z,17.00
2018-12-22T16:59:54.825Z,16.75
2018-12-22T17:02:41.311Z,16.85
2018-12-22T17:05:19.144Z,16.93
2018-12-22T17:07:58.874Z,16.86
2018-12-22T17:10:40.316Z,16.59
2018-12-22T17:13:20.301Z,16.80
2018-12-22T17:18:51.920Z,16.48
2018-12-22T17:21:31.811Z,16.56
2018-12-22T17:24:17.914Z,16.80
2018-12-22T17:26:54.522Z,16.55
2018-12-22T17:29:36.090Z,16.55
2018-12-22T17:32:08.369Z,16.53
2018-12-22T17:34:44.614Z,16.62
2018-12-22T17:37:23.806Z,16.74
2018-12-22T17:39:59.801Z,16.78
2018-12-22T17:42:37.069Z,16.51
2018-12-22T17:45:15.595Z,16.52
2018-12-22T17:47:48.772Z,16.49
2018-12-22T17:50:35.549Z,16.50
2018-12-22T17:53:17.930Z,16.80
2018-12-22T17:55:57.360Z,16.64
2018-12-22T17:58:32.684Z,16.48
2018-12-22T18:01:07.223Z,16.49
2018-12-22T18:03:43.769Z,16.50
2018-12-22T18:06:24.727Z,16.42
2018-12-22T18:08:57.402Z,16.66
2018-12-22T18:11:30.231Z,16.73
2018-12-22T18:14:05.958Z,16.56
2018-12-22T18:16:37.925Z,16.61
2018-12-22T18:19:13.215Z,16.54
2018-12-22T18:21:50.971Z,16.51
2018-12-22T18:24:30.738Z,16.37
2018-12-22T18:27:08.274Z,16.61
2018-12-22T18:29:45.329Z,16.57
2018-12-22T18:32:23.276Z,16.41
2018-12-22T18:34:56.627Z,16.45
2018-12-22T18:37:33.230Z,16.31
2018-12-22T18:40:13.277Z,16.49
2018-12-22T18:42:53.208Z,16.56
2018-12-22T18:45:30.308Z,16.46
2018-12-22T18:48:07.133Z,16.22
2018-12-22T18:50:45.567Z,16.40
2018-12-22T18:53:17.861Z,16.31
2018-12-22T18:55:50.120Z,16.50
2018-12-22T18:58:24.127Z,16.50
2018-12-22T19:00:59.604Z,16.53
2018-12-22T19:03:44.766Z,16.50
2018-12-22T19:06:18.422Z,16.28
2018-12-22T19:08:56.400Z,16.14
2018-12-22T19:11:29.379Z,15.50
2018-12-22T19:14:10.033Z,16.19
2018-12-22T19:16:45.350Z,16.18
2018-12-22T19:19:26.083Z,16.17
2018-12-22T19:22:04.377Z,16.19
2018-12-22T19:24:43.963Z,16.12
2018-12-22T19:27:22.478Z,16.10
2018-12-22T19:30:00.322Z,15.99
2018-12-22T19:32:39.262Z,16.50
2018-12-22T19:35:16.814Z,16.11
2018-12-22T19:37:53.644Z,15.95
2018-12-22T19:40:25.825Z,15.90
2018-12-22T19:43:02.447Z,16.00
2018-12-22T19:45:41.206Z,16.05
2018-12-22T19:48:19.030Z,15.88
2018-12-22T19:50:58.843Z,15.76
2018-12-22T19:53:36.195Z,15.78
2018-12-22T19:56:13.830Z,15.71
2018-12-22T19:58:52.293Z,15.66
2018-12-22T20:01:26.075Z,15.62
2018-12-22T20:04:09.300Z,15.70
2018-12-22T20:06:47.385Z,15.65
2018-12-22T20:09:26.309Z,15.64
2018-12-22T20:12:02.834Z,15.60
2018-12-22T20:14:42.238Z,15.49
2018-12-22T20:17:18.769Z,15.38
2018-12-22T20:19:56.910Z,15.43
2018-12-22T20:22:32.367Z,15.61
2018-12-22T20:25:11.826Z,15.74
2018-12-22T20:27:47.717Z,15.82
2018-12-22T20:30:31.039Z,15.91
2018-12-22T20:33:16.544Z,15.78
2018-12-22T20:35:51.172Z,15.99
2018-12-22T20:38:28.436Z,16.00
2018-12-22T20:43:44.870Z,16.31
2018-12-22T20:49:08.133Z,16.32
2018-12-22T20:54:31.977Z,16.51
2018-12-22T20:57:11.647Z,16.54
2018-12-22T20:59:50.165Z,16.65
2018-12-22T21:02:27.548Z,16.60
2018-12-22T21:07:46.312Z,16.02
2018-12-22T21:10:26.438Z,16.68
2018-12-22T21:13:07.235Z,16.74
2018-12-22T21:15:47.405Z,16.61
2018-12-22T21:18:33.619Z,16.74
2018-12-22T21:21:24.793Z,16.91
2018-12-22T21:24:02.243Z,16.75
2018-12-22T21:26:42.480Z,16.65
2018-12-22T21:32:02.484Z,16.84
2018-12-22T21:34:43.072Z,16.73
2018-12-22T21:37:19.545Z,16.58
2018-12-22T21:39:59.220Z,16.62
2018-12-22T21:42:33.869Z,16.65
2018-12-22T21:45:17.490Z,16.82
2018-12-22T21:53:31.602Z,16.93
2018-12-22T21:56:08.281Z,16.72
2018-12-22T21:58:55.747Z,16.77
2018-12-22T22:01:29.230Z,16.73
2018-12-22T22:04:08.070Z,16.78
2018-12-22T22:06:45.818Z,16.91
2018-12-22T22:09:22.296Z,16.94
2018-12-22T22:12:06.252Z,16.95
2018-12-22T22:14:43.769Z,17.22
2018-12-22T22:17:22.936Z,17.05
2018-12-22T22:19:59.429Z,17.03
2018-12-22T22:22:42.040Z,17.03
2018-12-22T22:25:18.999Z,17.02
2018-12-22T22:27:52.981Z,17.12
2018-12-22T22:30:32.312Z,17.00
2018-12-22T22:33:11.682Z,16.96
2018-12-22T22:35:49.661Z,16.94
2018-12-22T22:41:06.117Z,16.72
2018-12-22T22:43:39.984Z,16.92
2018-12-22T22:46:15.359Z,16.71
2018-12-22T22:48:53.778Z,16.48
2018-12-22T22:54:12.724Z,16.22
2018-12-22T22:56:50.168Z,16.03
2018-12-22T22:59:29.394Z,16.08
2018-12-22T23:02:08.448Z,16.01
2018-12-22T23:04:54.325Z,15.96
2018-12-22T23:07:35.915Z,16.31
2018-12-22T23:10:13.386Z,15.40
2018-12-22T23:12:51.170Z,15.96
2018-12-22T23:15:27.599Z,15.93
2018-12-22T23:18:01.542Z,16.17
2018-12-22T23:20:40.235Z,16.19
2018-12-22T23:23:13.814Z,16.23
2018-12-22T23:25:49.087Z,16.43
2018-12-22T23:28:23.366Z,16.44
2018-12-22T23:31:00.263Z,16.41
2018-12-22T23:33:34.034Z,16.31
2018-12-22T23:36:12.846Z,16.30
2018-12-22T23:38:45.998Z,16.33
2018-12-22T23:41:19.817Z,16.46
2018-12-22T23:43:55.091Z,16.27
2018-12-22T23:46:27.393Z,16.32
2018-12-22T23:49:02.570Z,16.29
2018-12-22T23:51:38.743Z,16.22
2018-12-22T23:54:15.172Z,16.04
2018-12-22T23:56:50.118Z,15.75
2018-12-22T23:59:23.715Z,15.76
